Time;durP1;ratioP1;P1;durP2;ratioP2;P2;SDS_P1;SDS_P2;PMS_P1;PMS_P2;Temp;Humidity;BMP_temperature;BMP_pressure;BME280_temperature;BME280_humidity;BME280_pressure;Samples;Min_cycle;Max_cycle;Signal;HPM_P1;HPM_P2
2023/07/14 00:01:37;;;;;;;10.27;5.72;;;;;;;20.65;63.02;101728.72;5064132;28;20067;-61
2023/07/14 00:04:08;;;;;;;10.75;5.50;;;;;;;20.62;63.30;101726.31;5052520;28;20028;-61
2023/07/14 00:06:34;;;;;;;9.48;5.80;;;;;;;20.61;63.15;101732.72;5055186;28;20079;-61
2023/07/14 00:09:00;;;;;;;7.75;5.20;;;;;;;20.59;63.39;101734.69;5059963;28;20021;-61
2023/07/14 00:11:25;;;;;;;5.78;5.18;;;;;;;20.57;63.46;101730.41;5058797;28;20043;-61
2023/07/14 00:13:53;;;;;;;7.55;5.75;;;;;;;20.58;63.58;101721.28;5038819;28;20028;-61
2023/07/14 00:16:28;;;;;;;7.50;5.25;;;;;;;20.57;63.45;101716.88;5062526;28;20055;-61
2023/07/14 00:18:53;;;;;;;7.88;4.80;;;;;;;20.56;63.72;101725.97;5055022;28;20086;-61
2023/07/14 00:21:25;;;;;;;9.25;5.00;;;;;;;20.54;63.71;101725.28;5058106;28;20378;-61
2023/07/14 00:23:57;;;;;;;7.55;4.97;;;;;;;20.54;63.73;101726.13;5059714;28;20036;-61
2023/07/14 00:26:22;;;;;;;6.32;4.97;;;;;;;20.52;63.73;101711.88;5058663;28;20489;-61
2023/07/14 00:28:49;;;;;;;7.25;5.32;;;;;;;20.51;63.65;101715.59;5054434;28;20115;-61
2023/07/14 00:31:17;;;;;;;6.28;5.00;;;;;;;20.49;63.69;101713.03;5050247;28;20024;-61
2023/07/14 00:33:45;;;;;;;5.32;4.30;;;;;;;20.48;63.76;101708.59;5058256;28;20402;-61
2023/07/14 00:36:12;;;;;;;7.25;5.03;;;;;;;20.48;63.63;101718.56;5052138;28;20028;-61
2023/07/14 00:38:37;;;;;;;7.40;4.70;;;;;;;20.48;63.52;101713.16;5055373;28;20467;-61
2023/07/14 00:41:07;;;;;;;4.88;4.30;;;;;;;20.49;63.64;101712.19;5061080;28;20032;-61
2023/07/14 00:43:34;;;;;;;7.82;4.45;;;;;;;20.50;64.05;101708.47;5057675;28;20086;-61
2023/07/14 00:46:01;;;;;;;5.05;3.83;;;;;;;20.48;64.00;101702.34;5052750;28;20032;-61
2023/07/14 00:48:28;;;;;;;8.93;4.30;;;;;;;20.47;63.84;101706.06;5045919;28;20044;-61
2023/07/14 00:51:02;;;;;;;5.20;4.03;;;;;;;20.49;63.53;101695.94;5054338;28;20031;-61
2023/07/14 00:53:33;;;;;;;6.28;3.97;;;;;;;20.47;63.84;101697.94;5050220;28;20040;-61
2023/07/14 00:56:08;;;;;;;4.75;3.70;;;;;;;20.48;63.86;101694.22;5060385;28;20028;-61
2023/07/14 00:58:34;;;;;;;6.70;4.50;;;;;;;20.46;63.84;101694.38;5038010;28;20041;-61
2023/07/14 01:01:13;;;;;;;8.77;4.00;;;;;;;20.45;63.49;101691.81;5055945;28;20024;-61
2023/07/14 01:03:42;;;;;;;5.78;4.20;;;;;;;20.45;63.54;101698.09;5054632;28;20059;-61
2023/07/14 01:06:17;;;;;;;6.07;4.90;;;;;;;20.46;63.92;101697.06;5058208;28;20032;-61
2023/07/14 01:08:53;;;;;;;5.30;4.40;;;;;;;20.46;63.59;101699.78;5059058;28;20032;-61
2023/07/14 01:11:24;;;;;;;6.35;4.80;;;;;;;20.46;63.86;101704.34;5042632;28;20041;-61
2023/07/14 01:13:49;;;;;;;4.63;4.10;;;;;;;20.46;63.98;101701.63;5060379;28;20025;-61
2023/07/14 01:16:15;;;;;;;6.97;4.50;;;;;;;20.42;63.81;101694.81;5056960;28;20029;-61
2023/07/14 01:18:43;;;;;;;7.07;4.43;;;;;;;20.44;64.28;101695.50;5060907;28;20029;-61
2023/07/14 01:21:09;;;;;;;5.32;4.32;;;;;;;20.45;63.70;101694.53;5058308;28;20029;-61
2023/07/14 01:23:47;;;;;;;10.77;4.57;;;;;;;20.43;63.87;101691.97;5054527;28;20359;-61
2023/07/14 01:26:39;;;;;;;6.45;4.60;;;;;;;20.46;63.99;101686.25;5057733;28;20795;-61
2023/07/14 01:29:04;;;;;;;4.43;3.97;;;;;;;20.43;64.01;101683.00;5052802;28;20025;-61
2023/07/14 01:31:29;;;;;;;6.85;4.15;;;;;;;20.42;64.47;101684.84;5060789;28;20436;-61
2023/07/14 01:33:56;;;;;;;7.13;4.90;;;;;;;20.43;64.42;101681.13;5063071;28;20041;-61
2023/07/14 01:36:23;;;;;;;7.80;4.40;;;;;;;20.42;64.22;101678.56;5059212;28;20029;-61
2023/07/14 01:38:50;;;;;;;6.72;5.03;;;;;;;20.41;64.11;101684.97;5062819;28;20032;-61
2023/07/14 01:41:15;;;;;;;7.28;4.30;;;;;;;20.39;64.24;101684.25;5059926;28;20025;-61
2023/07/14 01:43:42;;;;;;;8.70;4.50;;;;;;;20.37;64.00;101681.72;5062970;28;20044;-61
2023/07/14 01:46:14;;;;;;;7.10;4.70;;;;;;;20.38;64.03;101677.16;5057951;28;20028;-61
2023/07/14 01:49:08;;;;;;;8.45;4.60;;;;;;;20.40;63.67;101675.16;5056418;28;20035;-61
2023/07/14 01:51:40;;;;;;;8.50;4.88;;;;;;;20.36;64.14;101671.88;5059431;28;20063;-61
2023/07/14 01:54:17;;;;;;;7.95;4.50;;;;;;;20.36;64.09;101671.03;5055381;28;20074;-61
2023/07/14 01:56:44;;;;;;;4.35;3.95;;;;;;;20.36;64.25;101671.03;5061161;28;20024;-61
2023/07/14 01:59:22;;;;;;;5.68;4.03;;;;;;;20.35;64.26;101670.16;5060437;28;20106;-61
2023/07/14 02:01:52;;;;;;;9.13;4.43;;;;;;;20.36;64.08;101674.59;5062183;28;20032;-61
2023/07/14 02:04:27;;;;;;;7.10;5.03;;;;;;;20.36;63.64;101668.31;5062078;28;20048;-61
2023/07/14 02:06:56;;;;;;;6.93;3.65;;;;;;;20.35;63.87;101669.31;5055760;28;20107;-61
2023/07/14 02:09:23;;;;;;;9.52;4.80;;;;;;;20.33;64.21;101664.03;5056577;28;20067;-61
2023/07/14 02:11:53;;;;;;;9.27;4.78;;;;;;;20.35;63.90;101667.44;5061937;28;20040;-61
2023/07/14 02:14:21;;;;;;;10.38;4.60;;;;;;;20.34;63.93;101660.34;5060341;28;20064;-61
2023/07/14 02:16:48;;;;;;;7.30;5.05;;;;;;;20.34;64.12;101660.34;5057158;28;20079;-61
2023/07/14 02:19:22;;;;;;;6.13;5.45;;;;;;;20.34;63.68;101660.34;5061653;28;20533;-61
2023/07/14 02:21:49;;;;;;;8.18;4.65;;;;;;;20.33;63.63;101655.94;5058385;28;20021;-61
2023/07/14 02:24:27;;;;;;;8.55;5.75;;;;;;;20.35;63.69;101661.19;5059368;28;20086;-61
2023/07/14 02:26:59;;;;;;;8.20;5.35;;;;;;;20.33;63.71;101657.78;5059536;28;20359;-61
2023/07/14 02:29:25;;;;;;;9.25;5.30;;;;;;;20.29;63.41;101652.66;5057941;28;20127;-61
2023/07/14 02:31:55;;;;;;;7.40;5.43;;;;;;;20.30;63.50;101659.78;5057798;28;20164;-61
2023/07/14 02:34:22;;;;;;;8.00;5.25;;;;;;;20.27;63.51;101654.63;5056656;28;20017;-61
2023/07/14 02:36:58;;;;;;;7.15;5.10;;;;;;;20.28;63.36;101655.53;5062343;28;20423;-61
2023/07/14 02:39:23;;;;;;;6.72;5.18;;;;;;;20.25;63.62;101648.53;5059040;28;20070;-61
2023/07/14 02:41:53;;;;;;;7.32;5.22;;;;;;;20.25;63.25;101658.50;5060400;28;20059;-61
2023/07/14 02:44:19;;;;;;;7.15;4.80;;;;;;;20.23;63.23;101653.22;5056404;28;20133;-61
2023/07/14 02:47:05;;;;;;;7.47;5.25;;;;;;;20.23;63.48;101655.06;5060806;28;20509;-61
2023/07/14 02:49:31;;;;;;;8.52;4.82;;;;;;;20.21;63.61;101657.06;5058980;28;20024;-61
2023/07/14 02:51:56;;;;;;;7.20;5.07;;;;;;;20.19;63.17;101654.50;5059083;28;20496;-61
2023/07/14 02:54:24;;;;;;;8.10;4.90;;;;;;;20.18;63.36;101650.09;5058926;28;20063;-61
2023/07/14 02:56:50;;;;;;;8.93;4.95;;;;;;;20.16;63.45;101649.38;5054712;28;20025;-61
2023/07/14 02:59:16;;;;;;;10.32;4.75;;;;;;;20.17;63.17;101652.94;5057459;28;20033;-61
2023/07/14 03:01:41;;;;;;;6.70;4.70;;;;;;;20.15;63.03;101644.97;5059683;28;20033;-61
2023/07/14 03:04:07;;;;;;;5.78;5.10;;;;;;;20.15;62.88;101644.97;5060464;28;20048;-61
2023/07/14 03:06:32;;;;;;;7.57;5.47;;;;;;;20.15;62.97;101646.81;5061626;28;20029;-61
2023/07/14 03:08:58;;;;;;;7.38;5.60;;;;;;;20.12;63.10;101647.94;5060136;28;20016;-61
2023/07/14 03:11:23;;;;;;;7.40;5.38;;;;;;;20.13;63.22;101649.66;5041207;28;20065;-61
2023/07/14 03:13:49;;;;;;;6.22;4.90;;;;;;;20.12;62.98;101645.25;5054072;28;20040;-61
2023/07/14 03:16:15;;;;;;;9.40;5.30;;;;;;;20.09;63.26;101649.09;5061132;28;20033;-61
2023/07/14 03:18:41;;;;;;;5.07;4.53;;;;;;;20.11;62.86;101646.25;5058291;28;20028;-61
2023/07/14 03:21:07;;;;;;;7.75;5.15;;;;;;;20.09;62.74;101643.69;5055971;28;20828;-61
2023/07/14 03:23:33;;;;;;;8.65;5.32;;;;;;;20.09;62.75;101645.53;5059174;28;20036;-61
2023/07/14 03:26:01;;;;;;;6.25;4.07;;;;;;;20.06;63.07;101637.69;5059997;28;20039;-61
2023/07/14 03:28:27;;;;;;;6.68;4.95;;;;;;;20.06;63.00;101641.25;5060597;28;20055;-61
2023/07/14 03:30:53;;;;;;;5.75;4.90;;;;;;;20.06;63.20;101646.66;5062468;28;20042;-61
2023/07/14 03:33:18;;;;;;;6.60;4.80;;;;;;;20.06;63.02;101635.00;5056939;28;20032;-61
2023/07/14 03:35:44;;;;;;;5.18;4.68;;;;;;;20.04;62.80;101637.00;5059971;28;20050;-61
2023/07/14 03:38:09;;;;;;;7.38;4.43;;;;;;;20.03;63.24;101633.44;5059889;28;20048;-61
2023/07/14 03:40:34;;;;;;;8.13;4.95;;;;;;;20.03;63.28;101625.31;5059999;28;20104;-61
2023/07/14 03:43:00;;;;;;;6.72;4.72;;;;;;;20.04;62.93;101629.72;5037737;28;20562;-61
2023/07/14 03:45:25;;;;;;;8.77;4.97;;;;;;;20.05;62.83;101627.91;5063185;28;20482;-61
2023/07/14 03:47:51;;;;;;;5.93;4.70;;;;;;;20.03;63.08;101619.03;5059771;28;20036;-61
2023/07/14 03:50:16;;;;;;;7.05;4.80;;;;;;;20.03;63.11;101621.75;5059475;28;20032;-61
2023/07/14 03:52:42;;;;;;;8.35;5.47;;;;;;;20.02;63.12;101618.19;5054912;28;20452;-61
2023/07/14 03:55:09;;;;;;;6.40;4.50;;;;;;;20.04;62.91;101609.97;5041051;28;20689;-61
2023/07/14 03:57:35;;;;;;;6.20;5.18;;;;;;;20.03;62.76;101617.22;5059111;28;20277;-61
2023/07/14 04:00:13;;;;;;;5.32;4.60;;;;;;;20.03;62.86;101619.03;5058134;28;20048;-61
2023/07/14 04:02:43;;;;;;;6.10;4.43;;;;;;;20.02;62.73;101610.09;5063021;28;20437;-61
2023/07/14 04:05:10;;;;;;;7.85;5.13;;;;;;;20.02;62.87;101622.75;5059604;28;20062;-61
2023/07/14 04:07:37;;;;;;;7.75;4.65;;;;;;;20.01;62.79;101615.63;5057658;28;20032;-61
2023/07/14 04:10:04;;;;;;;6.88;4.80;;;;;;;19.99;63.15;101613.09;5059757;28;20063;-61
2023/07/14 04:12:30;;;;;;;7.03;4.95;;;;;;;19.99;63.15;101617.63;5058505;28;20060;-61
2023/07/14 04:14:56;;;;;;;8.98;5.28;;;;;;;19.98;62.57;101610.53;5057735;28;20033;-61
2023/07/14 04:17:22;;;;;;;5.20;4.03;;;;;;;20.00;63.05;101620.19;5059210;28;20036;-61
2023/07/14 04:19:48;;;;;;;8.40;4.05;;;;;;;19.99;62.77;101620.31;5041866;28;20055;-61
2023/07/14 04:22:13;;;;;;;7.47;4.22;;;;;;;20.00;62.89;101619.34;5056433;28;20064;-61
2023/07/14 04:24:38;;;;;;;6.20;4.50;;;;;;;20.01;62.98;101612.94;5059535;28;20036;-61
2023/07/14 04:27:04;;;;;;;6.40;4.18;;;;;;;20.00;62.79;101608.53;5061615;28;20195;-61
2023/07/14 04:29:29;;;;;;;6.25;4.15;;;;;;;20.00;62.68;101608.53;5062052;28;20500;-61
2023/07/14 04:31:55;;;;;;;5.05;3.95;;;;;;;19.99;63.00;101606.81;5059936;28;20032;-61
2023/07/14 04:34:21;;;;;;;5.32;4.15;;;;;;;20.01;63.01;101608.41;5058732;28;20083;-61
2023/07/14 04:36:47;;;;;;;6.03;4.32;;;;;;;20.01;62.69;101604.81;5057911;28;20103;-61
2023/07/14 04:39:13;;;;;;;12.88;4.43;;;;;;;20.01;62.87;101611.09;5056461;28;20107;-61
2023/07/14 04:41:39;;;;;;;6.45;4.25;;;;;;;20.01;62.59;101608.41;5060523;28;20039;-61
2023/07/14 04:44:13;;;;;;;9.20;4.32;;;;;;;20.02;62.91;101611.94;5053142;28;20033;-61
2023/07/14 04:46:39;;;;;;;4.53;3.53;;;;;;;20.01;62.65;101608.41;5055838;28;20077;-61
2023/07/14 04:49:05;;;;;;;5.97;4.25;;;;;;;20.02;62.99;101610.09;5055923;28;20378;-61
2023/07/14 04:51:32;;;;;;;7.50;4.10;;;;;;;20.02;62.92;101617.34;5054475;28;20036;-61
2023/07/14 04:53:57;;;;;;;7.47;3.70;;;;;;;20.02;62.87;101611.94;5057237;28;20040;-61
2023/07/14 04:56:24;;;;;;;6.88;3.75;;;;;;;20.03;63.15;101619.03;5060828;28;20036;-61
2023/07/14 04:58:49;;;;;;;5.22;4.30;;;;;;;20.04;62.85;101608.09;5058203;28;20108;-61
2023/07/14 05:01:15;;;;;;;4.57;3.55;;;;;;;20.06;62.71;101618.78;5059718;28;20447;-61
2023/07/14 05:03:41;;;;;;;5.30;3.40;;;;;;;20.06;62.68;101614.22;5058241;28;20806;-61
2023/07/14 05:06:06;;;;;;;4.85;3.58;;;;;;;20.08;62.70;101614.94;5058146;28;20044;-61
2023/07/14 05:08:32;;;;;;;6.40;3.70;;;;;;;20.07;62.47;101610.53;5056448;28;20032;-61
2023/07/14 05:10:57;;;;;;;4.68;3.28;;;;;;;20.09;62.74;101610.41;5060562;28;20059;-61
2023/07/14 05:13:22;;;;;;;4.95;3.40;;;;;;;20.08;62.43;101614.06;5058622;28;20122;-61
2023/07/14 05:15:48;;;;;;;5.45;3.45;;;;;;;20.07;62.49;101604.28;5052744;28;20033;-61
2023/07/14 05:18:13;;;;;;;4.55;3.13;;;;;;;20.06;62.43;101602.56;5061425;28;20036;-60
2023/07/14 05:20:40;;;;;;;8.15;3.67;;;;;;;20.06;62.89;101608.81;5057973;28;20021;-61
2023/07/14 05:23:06;;;;;;;4.68;3.38;;;;;;;20.06;62.51;101599.84;5054344;28;20378;-60
2023/07/14 05:25:31;;;;;;;6.95;3.88;;;;;;;20.07;62.56;101601.56;5059366;28;20033;-61
2023/07/14 05:27:56;;;;;;;6.43;3.70;;;;;;;20.06;62.61;101603.41;5056585;28;20028;-61
2023/07/14 05:30:22;;;;;;;5.13;3.17;;;;;;;20.08;62.40;101601.41;5060925;28;20039;-61
2023/07/14 05:32:49;;;;;;;5.95;3.38;;;;;;;20.09;62.40;101602.28;5061893;28;20028;-61
2023/07/14 05:35:16;;;;;;;5.97;2.83;;;;;;;20.09;62.25;101610.41;5058939;28;20446;-61
2023/07/14 05:37:43;;;;;;;6.45;3.00;;;;;;;20.11;62.27;101614.66;5056467;28;20029;-61
2023/07/14 05:40:10;;;;;;;5.57;3.00;;;;;;;20.13;62.22;101609.09;5058581;28;20037;-61
2023/07/14 05:42:36;;;;;;;7.72;3.03;;;;;;;20.14;61.87;101599.13;5057316;28;20082;-60
2023/07/14 05:45:03;;;;;;;7.78;3.78;;;;;;;20.14;61.81;101604.53;5053351;28;20099;-61
2023/07/14 05:47:29;;;;;;;5.35;2.95;;;;;;;20.12;61.71;101601.97;5058163;28;20387;-61
2023/07/14 05:49:54;;;;;;;4.35;3.10;;;;;;;20.12;61.70;101604.69;5055604;28;20017;-61
2023/07/14 05:52:20;;;;;;;5.22;2.70;;;;;;;20.15;61.68;101603.56;5060103;28;20068;-61
2023/07/14 05:54:47;;;;;;;4.32;2.90;;;;;;;20.15;61.66;101600.88;5058056;28;20021;-61
2023/07/14 05:57:12;;;;;;;6.50;2.42;;;;;;;20.15;61.39;101593.59;5058671;28;20379;-61
2023/07/14 05:59:38;;;;;;;4.47;2.70;;;;;;;20.15;61.22;101596.31;5053882;28;20032;-61
2023/07/14 06:02:05;;;;;;;6.43;3.17;;;;;;;20.16;60.49;101606.09;5058893;28;20036;-61
2023/07/14 06:04:36;;;;;;;6.93;3.50;;;;;;;20.16;61.31;101602.56;5054473;28;20522;-61
2023/07/14 06:07:03;;;;;;;7.18;2.50;;;;;;;20.18;61.53;101604.13;5058409;28;20048;-61
2023/07/14 06:09:34;;;;;;;6.38;2.80;;;;;;;20.19;61.59;101607.69;5053625;28;20037;-61
2023/07/14 06:12:03;;;;;;;5.70;2.83;;;;;;;20.20;61.30;101604.84;5053772;28;20129;-61
2023/07/14 06:14:33;;;;;;;6.93;2.85;;;;;;;20.21;61.18;101609.25;5054096;28;20152;-61
2023/07/14 06:17:00;;;;;;;4.63;3.15;;;;;;;20.23;61.00;101603.69;5057992;28;20020;-61
2023/07/14 06:19:27;;;;;;;5.60;2.60;;;;;;;20.25;60.78;101604.41;5058808;28;20041;-61
2023/07/14 06:21:53;;;;;;;7.13;2.67;;;;;;;20.22;60.61;101597.44;5059579;28;20044;-61
2023/07/14 06:24:19;;;;;;;5.43;2.65;;;;;;;20.23;60.46;101593.72;5057841;28;20032;-61
2023/07/14 06:26:44;;;;;;;4.90;3.08;;;;;;;20.25;60.28;101599.84;5015081;28;20538;-61
2023/07/14 06:29:10;;;;;;;7.97;3.35;;;;;;;20.24;60.32;101600.00;5065129;28;20060;-61
2023/07/14 06:31:35;;;;;;;3.70;2.38;;;;;;;20.25;60.35;101599.00;5060499;28;20090;-61
2023/07/14 06:34:00;;;;;;;9.05;3.15;;;;;;;20.26;60.46;101598.88;5063857;28;20086;-61
2023/07/14 06:36:27;;;;;;;5.28;2.47;;;;;;;20.27;61.02;101597.84;5057741;28;20037;-61
2023/07/14 06:38:52;;;;;;;3.95;2.65;;;;;;;20.26;60.62;101598.88;5062093;28;20050;-61
2023/07/14 06:41:17;;;;;;;3.78;2.60;;;;;;;20.28;60.42;101596.88;5053071;28;20021;-61
2023/07/14 06:43:43;;;;;;;8.63;3.08;;;;;;;20.30;60.42;101594.03;5059374;28;20031;-61
2023/07/14 06:46:08;;;;;;;4.10;2.95;;;;;;;20.32;60.25;101600.13;5059854;28;20119;-61
2023/07/14 06:48:34;;;;;;;7.75;2.78;;;;;;;20.34;60.82;101590.03;5060727;28;20028;-61
2023/07/14 06:50:59;;;;;;;5.78;2.65;;;;;;;20.37;60.73;101584.34;5059602;28;20037;-61
2023/07/14 06:53:25;;;;;;;6.13;2.85;;;;;;;20.37;60.41;101587.06;5058798;28;20044;-61
2023/07/14 06:55:51;;;;;;;6.85;2.95;;;;;;;20.39;60.73;101581.47;5062927;28;20543;-60
2023/07/14 06:58:16;;;;;;;8.18;3.00;;;;;;;20.38;60.62;101583.34;5057885;28;20036;-60
2023/07/14 07:00:42;;;;;;;4.32;2.78;;;;;;;20.40;60.56;101583.19;5056087;28;20446;-60
2023/07/14 07:03:08;;;;;;;6.43;2.45;;;;;;;20.42;60.96;101581.19;5057334;28;20060;-60
2023/07/14 07:05:38;;;;;;;5.22;2.78;;;;;;;20.42;60.48;101581.19;5058764;28;20471;-60
2023/07/14 07:08:07;;;;;;;6.20;2.40;;;;;;;20.43;60.49;101577.50;5056846;28;20025;-60
2023/07/14 07:10:33;;;;;;;3.65;2.55;;;;;;;20.46;60.16;101585.31;5055422;28;20033;-60
2023/07/14 07:12:58;;;;;;;2.95;2.40;;;;;;;20.45;60.51;101576.34;5055440;28;20107;-60
2023/07/14 07:15:24;;;;;;;7.32;2.78;;;;;;;20.46;60.12;101572.63;5060211;28;20025;-61
2023/07/14 07:17:49;;;;;;;3.88;2.70;;;;;;;20.46;59.78;101569.94;5058195;28;20068;-61
2023/07/14 07:20:14;;;;;;;7.18;2.78;;;;;;;20.47;60.12;101571.66;5055259;28;20031;-61
2023/07/14 07:22:41;;;;;;;7.05;2.92;;;;;;;20.49;60.61;101571.50;5059122;28;20033;-61
2023/07/14 07:25:07;;;;;;;3.72;2.88;;;;;;;20.48;60.36;101559.81;5056922;28;20116;-61
2023/07/14 07:27:33;;;;;;;4.57;2.60;;;;;;;20.48;60.80;101570.63;5061088;28;20059;-61
2023/07/14 07:30:00;;;;;;;7.97;2.80;;;;;;;20.50;60.58;101556.97;5059755;28;20056;-61
2023/07/14 07:32:29;;;;;;;6.75;3.20;;;;;;;20.51;60.01;101562.25;5057074;28;20040;-61
2023/07/14 07:34:59;;;;;;;5.40;2.53;;;;;;;20.52;60.19;101565.78;5057780;28;20078;-61
2023/07/14 07:37:25;;;;;;;7.18;2.28;;;;;;;20.52;59.60;101560.38;5062813;28;20028;-61
2023/07/14 07:39:53;;;;;;;5.28;2.47;;;;;;;20.52;59.45;101557.66;5057205;28;20029;-61
2023/07/14 07:42:19;;;;;;;4.97;2.33;;;;;;;20.51;59.40;101555.97;5055409;28;20505;-61
2023/07/14 07:44:44;;;;;;;4.38;2.50;;;;;;;20.51;59.39;101554.13;5058894;28;20025;-61
2023/07/14 07:47:10;;;;;;;6.13;2.33;;;;;;;20.51;59.61;101556.81;5058350;28;20028;-61
2023/07/14 07:49:35;;;;;;;5.13;2.50;;;;;;;20.54;59.62;101555.66;5057728;28;20035;-61
2023/07/14 07:52:00;;;;;;;3.85;2.30;;;;;;;20.55;59.66;101556.53;5054772;28;20526;-61
2023/07/14 07:54:26;;;;;;;6.88;2.33;;;;;;;20.56;59.55;101555.53;5059084;28;20386;-61
2023/07/14 07:56:51;;;;;;;6.18;2.70;;;;;;;20.57;59.36;101546.44;5059752;28;20037;-61
2023/07/14 07:59:17;;;;;;;4.97;2.58;;;;;;;20.57;59.95;101547.28;5054990;28;20033;-61
2023/07/14 08:01:43;;;;;;;6.63;2.08;;;;;;;20.58;59.63;101551.69;5059964;28;20427;-61
2023/07/14 08:04:10;;;;;;;3.88;2.72;;;;;;;20.60;59.32;101548.84;5057054;28;20395;-61
2023/07/14 08:06:36;;;;;;;3.75;2.28;;;;;;;20.60;59.65;101541.63;5055797;28;20051;-61
2023/07/14 08:09:03;;;;;;;6.93;2.05;;;;;;;20.61;59.03;101539.75;5056897;28;20036;-61
2023/07/14 08:11:29;;;;;;;6.05;2.67;;;;;;;20.60;59.06;101533.50;5062959;28;20044;-61
2023/07/14 08:13:54;;;;;;;8.32;2.92;;;;;;;20.61;58.85;101532.47;5061777;28;20062;-61
2023/07/14 08:16:20;;;;;;;3.90;2.55;;;;;;;20.62;58.98;101534.19;5056242;28;20060;-61
2023/07/14 08:18:45;;;;;;;5.65;2.50;;;;;;;20.63;58.95;101535.88;5062788;28;20029;-62
2023/07/14 08:21:10;;;;;;;5.55;2.20;;;;;;;20.64;58.86;101545.72;5056195;28;20029;-61
2023/07/14 08:23:37;;;;;;;6.47;2.30;;;;;;;20.64;58.77;101543.03;5058683;28;20422;-61
2023/07/14 08:26:04;;;;;;;4.82;2.30;;;;;;;20.64;58.57;101545.72;5062115;28;20032;-61
2023/07/14 08:28:30;;;;;;;7.35;1.77;;;;;;;20.64;58.20;101543.03;5059698;28;20036;-61
2023/07/14 08:31:00;;;;;;;4.50;2.10;;;;;;;20.65;58.13;101544.72;5058441;28;20045;-61
2023/07/14 08:33:26;;;;;;;6.38;2.58;;;;;;;20.66;58.18;101546.44;5058178;28;20059;-61
2023/07/14 08:35:53;;;;;;;5.28;2.50;;;;;;;20.66;58.44;101541.03;5055724;28;20056;-61
2023/07/14 08:38:19;;;;;;;5.43;2.22;;;;;;;20.68;58.35;101539.03;5055442;28;20059;-62
2023/07/14 08:40:52;;;;;;;3.95;2.20;;;;;;;20.69;59.00;101540.75;5054588;28;20021;-61
2023/07/14 08:43:44;;;;;;;3.83;2.10;;;;;;;20.70;57.98;101542.44;5054142;28;20107;-61
2023/07/14 08:46:15;;;;;;;4.57;2.17;;;;;;;20.70;58.18;101542.44;5060698;28;20074;-61
2023/07/14 08:48:49;;;;;;;3.47;1.98;;;;;;;20.72;58.38;101539.56;5052155;28;20093;-61
2023/07/14 08:51:36;;;;;;;3.58;2.25;;;;;;;20.73;58.47;101535.84;5058215;28;20032;-62
2023/07/14 08:54:14;;;;;;;3.90;2.10;;;;;;;20.74;58.01;101534.88;5051294;28;20095;-62
2023/07/14 08:56:41;;;;;;;2.78;1.77;;;;;;;20.74;57.96;101539.44;5054241;28;20025;-61
2023/07/14 08:59:20;;;;;;;4.85;2.05;;;;;;;20.74;57.82;101532.16;5058132;28;20066;-61
2023/07/14 09:01:53;;;;;;;4.88;2.10;;;;;;;20.77;58.06;101525.59;5063864;28;20032;-61
2023/07/14 09:04:24;;;;;;;3.13;1.90;;;;;;;20.78;58.06;101524.59;5058010;28;20489;-61
2023/07/14 09:06:50;;;;;;;2.55;1.80;;;;;;;20.79;58.08;101513.63;5053347;28;20033;-62
2023/07/14 09:09:21;;;;;;;2.08;1.85;;;;;;;20.80;58.18;101514.47;5058553;28;20071;-62
2023/07/14 09:11:49;;;;;;;5.88;2.13;;;;;;;20.83;57.89;101514.19;5058130;28;20037;-61
2023/07/14 09:14:37;;;;;;;6.95;2.53;;;;;;;20.84;57.63;101518.59;5057983;28;20033;-61
2023/07/14 09:17:11;;;;;;;4.95;2.08;;;;;;;20.86;58.10;101508.47;5052163;28;20021;-61
2023/07/14 09:20:08;;;;;;;4.03;2.30;;;;;;;20.87;57.85;101511.03;5057784;28;20372;-61
2023/07/14 09:22:39;;;;;;;3.17;1.85;;;;;;;20.88;57.97;101501.03;5055807;28;20033;-61
2023/07/14 09:25:04;;;;;;;;;;;;;;;20.94;58.33;101508.56;5061722;28;20037;-61
2023/07/14 09:27:31;;;;;;;7.33;2.43;;;;;;;20.92;58.25;101501.59;5056334;28;19959;-61
2023/07/14 09:29:59;;;;;;;3.78;2.25;;;;;;;20.92;58.07;101499.75;5059359;28;20029;-61
2023/07/14 09:32:25;;;;;;;8.07;2.40;;;;;;;20.93;57.72;101501.47;5055060;28;20120;-61
2023/07/14 09:35:09;;;;;;;5.28;2.20;;;;;;;20.97;58.03;101494.75;5057479;28;20072;-62
2023/07/14 09:38:10;;;;;;;7.68;2.25;;;;;;;21.00;57.77;101494.44;5056913;28;20371;-61
2023/07/14 09:40:38;;;;;;;4.68;2.08;;;;;;;21.03;57.84;101491.41;5053840;28;20075;-62
2023/07/14 09:43:05;;;;;;;3.38;2.03;;;;;;;21.04;57.48;101478.75;5056201;28;20032;-61
2023/07/14 09:45:35;;;;;;;3.72;2.40;;;;;;;21.04;57.37;101489.59;5061161;28;20502;-62
2023/07/14 09:48:19;;;;;;;7.07;2.67;;;;;;;21.05;57.42;101470.47;5057091;28;20108;-61
2023/07/14 09:50:59;;;;;;;6.00;2.28;;;;;;;21.07;57.96;101473.03;5051211;28;20028;-62
2023/07/14 09:53:26;;;;;;;4.73;2.30;;;;;;;21.08;57.66;101464.75;5056299;28;20040;-61
2023/07/14 09:56:00;;;;;;;3.47;2.35;;;;;;;21.08;57.88;101469.31;5058730;28;20595;-61
2023/07/14 09:58:28;;;;;;;2.90;2.15;;;;;;;21.11;57.70;101465.44;5059910;28;20036;-62
2023/07/14 10:00:57;;;;;;;4.63;1.95;;;;;;;21.10;58.25;101467.31;5060468;28;20051;-61
2023/07/14 10:03:28;;;;;;;5.35;2.30;;;;;;;21.13;58.04;101471.56;5058090;28;20028;-62
2023/07/14 10:06:11;;;;;;;5.30;2.50;;;;;;;21.14;58.22;101460.59;5056091;28;20107;-62
2023/07/14 10:08:46;;;;;;;4.10;2.25;;;;;;;21.17;57.85;101451.28;5059782;28;20036;-62
2023/07/14 10:11:17;;;;;;;4.55;1.85;;;;;;;21.21;57.92;101449.97;5051450;28;20045;-61
2023/07/14 10:13:46;;;;;;;;;;;;;;;21.27;57.75;101452.94;5059179;28;20127;-61
2023/07/14 10:16:16;;;;;;;3.80;2.20;;;;;;;21.22;57.43;101444.41;5059489;28;20328;-62
2023/07/14 10:18:48;;;;;;;3.83;2.17;;;;;;;21.23;57.38;101435.28;5062141;28;20123;-61
2023/07/14 10:21:21;;;;;;;4.10;2.00;;;;;;;21.23;57.46;101434.44;5054634;28;20028;-61
2023/07/14 10:24:05;;;;;;;4.35;2.08;;;;;;;21.23;57.94;101429.88;5060615;28;20056;-61
2023/07/14 10:26:33;;;;;;;3.42;2.28;;;;;;;21.23;57.94;101421.75;5061846;28;20040;-61
2023/07/14 10:29:00;;;;;;;5.97;2.47;;;;;;;21.23;58.12;101424.47;5060743;28;20025;-61
2023/07/14 10:31:44;;;;;;;3.92;2.42;;;;;;;21.22;57.93;101417.31;5061178;28;20040;-61
2023/07/14 10:34:24;;;;;;;4.05;2.22;;;;;;;21.27;58.52;101414.19;5054406;28;20029;-61
2023/07/14 10:36:54;;;;;;;3.33;2.05;;;;;;;21.27;58.44;101406.91;5056270;28;20033;-61
2023/07/14 10:39:30;;;;;;;4.78;2.40;;;;;;;21.31;58.20;101396.59;5054398;28;20025;-61
2023/07/14 10:41:56;;;;;;;4.53;2.35;;;;;;;21.33;58.35;101396.47;5055678;28;20044;-61
2023/07/14 10:44:32;;;;;;;4.82;2.08;;;;;;;21.32;57.29;101390.16;5057598;28;20028;-61
2023/07/14 10:47:10;;;;;;;5.93;2.20;;;;;;;21.32;57.91;101392.88;5062159;28;20025;-61
2023/07/14 10:49:42;;;;;;;4.28;2.38;;;;;;;21.33;57.86;101385.63;5057358;28;20032;-61
2023/07/14 10:52:26;;;;;;;5.38;2.35;;;;;;;21.35;58.08;101386.31;5058792;28;20036;-61
2023/07/14 10:55:12;;;;;;;3.42;2.58;;;;;;;21.35;58.22;101389.88;5061049;28;20029;-61
2023/07/14 10:58:00;;;;;;;7.47;2.50;;;;;;;21.36;58.20;101388.00;5056465;28;20032;-61
2023/07/14 11:00:47;;;;;;;5.05;2.38;;;;;;;21.35;57.81;101383.59;5056649;28;20387;-61
2023/07/14 11:03:28;;;;;;;6.63;2.17;;;;;;;21.36;57.72;101379.88;5062860;28;20036;-61
2023/07/14 11:06:01;;;;;;;3.15;2.40;;;;;;;21.37;57.77;101387.84;5056528;28;20447;-61
2023/07/14 11:08:30;;;;;;;3.17;2.03;;;;;;;21.39;58.22;101385.84;5063504;28;20067;-61
2023/07/14 11:11:09;;;;;;;2.63;1.90;;;;;;;21.39;57.71;101388.53;5062943;28;20128;-60
2023/07/14 11:13:59;;;;;;;4.85;2.17;;;;;;;21.39;57.63;101364.16;5050319;28;20032;-61
2023/07/14 11:16:33;;;;;;;3.10;1.98;;;;;;;21.40;56.99;101356.88;5054158;28;20052;-61
2023/07/14 11:19:13;;;;;;;4.95;2.30;;;;;;;21.43;57.17;101364.72;5053865;28;20123;-61
2023/07/14 11:21:48;;;;;;;4.07;2.50;;;;;;;21.43;57.53;101360.13;5053376;28;20017;-61
2023/07/14 11:24:35;;;;;;;7.72;2.50;;;;;;;21.43;57.05;101333.03;5058088;28;20059;-61
2023/07/14 11:27:13;;;;;;;15.23;2.33;;;;;;;21.44;57.77;101321.25;5058817;28;20052;-61
2023/07/14 11:29:50;;;;;;;8.13;2.35;;;;;;;21.45;57.59;101325.63;5060238;28;20033;-61
2023/07/14 11:32:21;;;;;;;4.55;2.15;;;;;;;21.46;57.13;101326.50;5055904;28;20108;-61
2023/07/14 11:35:02;;;;;;;6.57;2.22;;;;;;;21.47;57.74;101322.78;5058451;28;20586;-60